Time;durP1;ratioP1;P1;durP2;ratioP2;P2;SDS_P1;SDS_P2;PMS_P1;PMS_P2;Temp;Humidity;BMP_temperature;BMP_pressure;BME280_temperature;BME280_humidity;BME280_pressure;Samples;Min_cycle;Max_cycle;Signal;HPM_P1;HPM_P2
2022/12/30 00:00:02;;;;;;;15.75;13.45;;;;;;;12.69;100.00;102303.38;2101315;28;20040;-74
2022/12/30 00:01:32;;;;;;;14.93;12.05;;;;;;;12.70;100.00;102306.09;2102694;28;20055;-74
2022/12/30 00:02:53;;;;;;;14.48;11.25;;;;;;;12.72;100.00;102307.03;2094438;28;20041;-75
2022/12/30 00:04:15;;;;;;;15.05;11.85;;;;;;;12.73;100.00;102302.66;2093959;28;20040;-75
2022/12/30 00:05:37;;;;;;;13.93;11.50;;;;;;;12.74;100.00;102307.97;2092675;28;20051;-74
2022/12/30 00:07:00;;;;;;;14.23;11.73;;;;;;;12.73;100.00;102310.59;2089917;28;20505;-75
2022/12/30 00:10:02;;;;;;;13.82;11.90;;;;;;;12.72;100.00;102315.00;2095877;28;20128;-75
2022/12/30 00:11:25;;;;;;;16.60;12.50;;;;;;;12.72;100.00;102315.00;2087794;28;20420;-74
2022/12/30 00:33:20;;;;;;;14.77;11.93;;;;;;;12.46;100.00;102330.88;2087500;28;20041;-74
2022/12/30 00:34:43;;;;;;;14.35;11.98;;;;;;;12.43;100.00;102334.31;2103394;28;20043;-74
2022/12/30 00:36:06;;;;;;;16.92;11.98;;;;;;;12.46;100.00;102341.50;2095382;28;20052;-74
2022/12/30 00:37:28;;;;;;;15.30;11.82;;;;;;;12.44;100.00;102332.56;2096392;28;20052;-74
2022/12/30 00:38:50;;;;;;;15.80;12.52;;;;;;;12.44;100.00;102343.16;2091579;28;20060;-77
2022/12/30 00:40:12;;;;;;;15.25;11.88;;;;;;;12.46;100.00;102344.13;2099094;28;20051;-74
2022/12/30 00:43:13;;;;;;;16.15;11.90;;;;;;;12.44;100.00;102341.44;2107831;28;20134;-75
2022/12/30 00:44:36;;;;;;;13.73;11.88;;;;;;;12.43;100.00;102342.28;2104351;28;20484;-74
2022/12/30 00:45:59;;;;;;;16.50;12.45;;;;;;;12.44;100.00;102348.47;2100684;28;20105;-73
2022/12/30 00:47:22;;;;;;;16.58;12.35;;;;;;;12.43;100.00;102346.66;2100659;28;20539;-73
2022/12/30 00:57:02;;;;;;;15.02;11.82;;;;;;;12.56;100.00;102341.81;2103645;28;20032;-74
2022/12/30 00:58:25;;;;;;;14.65;11.70;;;;;;;12.56;100.00;102343.56;2101492;28;20044;-74
2022/12/30 00:59:47;;;;;;;14.93;11.45;;;;;;;12.53;100.00;102340.84;2091756;28;20036;-74
2022/12/30 01:01:10;;;;;;;13.98;10.77;;;;;;;12.52;100.00;102346.97;2089866;28;20059;-74
2022/12/30 01:02:32;;;;;;;15.75;12.50;;;;;;;12.48;100.00;102340.66;2078906;28;20187;-74
2022/12/30 01:03:54;;;;;;;14.20;11.23;;;;;;;12.47;100.00;102346.81;2085787;28;20460;-75
2022/12/30 01:05:16;;;;;;;16.38;12.35;;;;;;;12.46;100.00;102349.44;2096965;28;20058;-74
2022/12/30 01:06:39;;;;;;;17.20;12.98;;;;;;;12.48;100.00;102345.06;2100641;28;20507;-74
2022/12/30 01:08:00;;;;;;;13.48;11.63;;;;;;;12.50;100.00;102344.28;2093043;28;20046;-74
2022/12/30 01:09:23;;;;;;;15.98;12.45;;;;;;;12.53;100.00;102351.44;2101150;28;20048;-74
2022/12/30 01:10:44;;;;;;;14.30;12.32;;;;;;;12.54;100.00;102340.88;2099797;28;20036;-74
2022/12/30 01:12:10;;;;;;;15.25;12.25;;;;;;;12.54;100.00;102340.88;2093122;28;20439;-74
2022/12/30 01:13:33;;;;;;;13.77;11.70;;;;;;;12.55;100.00;102347.06;2101877;28;20132;-73
2022/12/30 01:14:56;;;;;;;14.50;11.57;;;;;;;12.52;100.00;102347.88;2101276;28;20044;-74
2022/12/30 01:16:19;;;;;;;14.05;11.48;;;;;;;12.48;100.00;102345.97;2093033;28;20078;-74
2022/12/30 01:17:41;;;;;;;14.07;11.57;;;;;;;12.43;100.00;102346.66;2099090;28;20270;-74
2022/12/30 01:19:04;;;;;;;15.07;12.23;;;;;;;12.39;100.00;102337.72;2100439;28;20048;-75
2022/12/30 01:20:25;;;;;;;15.75;12.50;;;;;;;12.34;100.00;102344.59;2095780;28;20052;-74
2022/12/30 01:21:47;;;;;;;14.32;12.02;;;;;;;12.30;100.00;102351.56;2092674;28;20044;-75
2022/12/30 01:23:09;;;;;;;16.02;12.75;;;;;;;12.27;100.00;102347.91;2096413;28;20048;-74
2022/12/30 01:24:31;;;;;;;15.93;12.75;;;;;;;12.22;100.00;102347.75;2092104;28;20087;-74
2022/12/30 01:25:53;;;;;;;16.52;12.32;;;;;;;12.19;100.00;102338.81;2090595;28;20056;-75
2022/12/30 01:27:16;;;;;;;16.25;12.80;;;;;;;12.14;100.00;102348.34;2089886;28;20067;-75
2022/12/30 01:28:38;;;;;;;16.25;12.57;;;;;;;12.12;100.00;102355.31;2097983;28;20058;-74
2022/12/30 01:30:00;;;;;;;15.07;13.02;;;;;;;12.10;100.00;102352.59;2095906;28;20844;-75
2022/12/30 01:31:25;;;;;;;14.45;11.80;;;;;;;12.08;100.00;102350.78;2092931;28;20106;-75
2022/12/30 01:32:46;;;;;;;14.68;13.02;;;;;;;12.05;100.00;102353.31;2092627;28;20037;-74
2022/12/30 01:34:09;;;;;;;15.10;12.68;;;;;;;12.02;100.00;102350.53;2093848;28;20071;-75
2022/12/30 01:35:32;;;;;;;15.13;12.05;;;;;;;12.00;100.00;102354.91;2095040;28;20052;-75
2022/12/30 01:36:54;;;;;;;17.48;12.68;;;;;;;11.98;100.00;102354.84;2100465;28;20054;-75
2022/12/30 01:38:15;;;;;;;16.80;13.15;;;;;;;11.93;100.00;102345.84;2093216;28;20045;-75
2022/12/30 01:39:38;;;;;;;16.15;13.27;;;;;;;11.90;100.00;102345.72;2098068;28;20040;-74
2022/12/30 01:41:01;;;;;;;18.17;14.07;;;;;;;11.88;100.00;102345.66;2101411;28;20782;-74
2022/12/30 01:42:24;;;;;;;18.65;15.35;;;;;;;11.88;100.00;102345.66;2100584;28;20515;-74
2022/12/30 01:43:49;;;;;;;16.60;13.25;;;;;;;11.88;100.00;102347.44;2099799;28;20090;-74
2022/12/30 01:45:17;;;;;;;18.00;14.25;;;;;;;11.87;100.00;102345.63;2100940;28;20043;-74
2022/12/30 01:46:45;;;;;;;18.45;14.35;;;;;;;11.86;100.00;102351.75;2095707;28;20045;-73
2022/12/30 01:48:15;;;;;;;19.70;13.70;;;;;;;11.88;100.00;102350.06;2106097;28;20492;-74
2022/12/30 01:49:40;;;;;;;19.05;12.75;;;;;;;11.87;100.00;102349.16;2100991;28;20040;-73
2022/12/30 01:51:07;;;;;;;16.70;12.85;;;;;;;11.87;100.00;102346.53;2090395;28;20080;-73
2022/12/30 01:52:28;;;;;;;20.95;16.40;;;;;;;11.86;100.00;102351.75;2095051;28;20404;-74
2022/12/30 01:53:52;;;;;;;24.98;21.42;;;;;;;11.84;100.00;102349.03;2094244;28;20048;-74
2022/12/30 01:55:18;;;;;;;23.80;21.20;;;;;;;11.83;100.00;102341.94;2099673;28;20040;-74
2022/12/30 01:56:42;;;;;;;21.58;16.75;;;;;;;11.83;100.00;102343.69;2102428;28;20697;-73
2022/12/30 01:58:08;;;;;;;18.08;15.52;;;;;;;11.84;100.00;102343.75;2094688;28;20033;-74
2022/12/30 01:59:30;;;;;;;18.70;14.57;;;;;;;11.85;100.00;102340.25;2095796;28;20052;-74
2022/12/30 02:00:52;;;;;;;22.45;15.25;;;;;;;11.87;100.00;102337.69;2105506;28;20497;-73
2022/12/30 02:02:17;;;;;;;20.13;14.93;;;;;;;11.86;100.00;102339.44;2104959;28;20545;-74
2022/12/30 02:03:45;;;;;;;18.83;14.82;;;;;;;11.85;100.00;102332.31;2102261;28;20043;-74
2022/12/30 02:05:08;;;;;;;16.25;12.45;;;;;;;11.84;100.00;102340.22;2097093;28;20143;-74
2022/12/30 02:06:39;;;;;;;18.65;14.48;;;;;;;11.84;100.00;102342.84;2098987;28;20040;-74
2022/12/30 02:08:07;;;;;;;20.42;16.02;;;;;;;11.79;100.00;102333.84;2103474;28;20063;-74
2022/12/30 02:09:30;;;;;;;17.50;13.30;;;;;;;11.79;100.00;102331.22;2094584;28;20052;-73
2022/12/30 02:10:55;;;;;;;18.80;14.02;;;;;;;11.82;100.00;102334.84;2108818;28;20074;-74
2022/12/30 02:12:17;;;;;;;18.67;14.43;;;;;;;11.81;100.00;102338.38;2104202;28;20079;-74
2022/12/30 02:13:40;;;;;;;16.08;11.82;;;;;;;11.82;100.00;102333.94;2093522;28;20044;-74
2022/12/30 02:15:04;;;;;;;18.17;12.63;;;;;;;11.82;100.00;102326.91;2089483;28;20171;-74
2022/12/30 02:16:40;;;;;;;18.30;14.77;;;;;;;11.83;100.00;102330.47;2107991;28;20044;-74
2022/12/30 02:18:11;;;;;;;19.05;15.77;;;;;;;11.79;100.00;102334.75;2103636;28;20616;-74
2022/12/30 02:20:10;;;;;;;19.45;15.05;;;;;;;11.76;100.00;102339.03;2099639;28;20051;-74
2022/12/30 02:21:59;;;;;;;18.13;15.07;;;;;;;11.73;100.00;102329.22;2092757;28;20039;-74
2022/12/30 02:23:51;;;;;;;18.30;12.95;;;;;;;11.71;100.00;102332.63;2104710;28;20060;-74
2022/12/30 02:25:48;;;;;;;16.88;13.00;;;;;;;11.66;100.00;102335.13;2101981;28;20047;-74
2022/12/30 02:27:30;;;;;;;17.98;13.25;;;;;;;11.65;100.00;102343.91;2097750;28;20115;-74
2022/12/30 02:29:17;;;;;;;19.73;13.57;;;;;;;11.63;100.00;102339.38;2096823;28;20051;-74
2022/12/30 02:31:11;;;;;;;17.45;14.00;;;;;;;11.61;100.00;102334.06;2105351;28;20044;-74
2022/12/30 02:32:43;;;;;;;24.25;15.75;;;;;;;11.63;100.00;102337.66;2098372;28;20752;-74
2022/12/30 02:34:09;;;;;;;;;;;;;;;11.55;100.00;102337.34;2103648;28;20085;-74
2022/12/30 02:35:36;;;;;;;;;;;;;;;11.53;100.00;102338.16;2094665;28;19920;-73
2022/12/30 02:37:04;;;;;;;;;;;;;;;11.50;100.00;102344.22;2103080;28;20018;-73
2022/12/30 02:38:29;;;;;;;;;;;;;;;11.47;100.00;102337.94;2102797;28;19920;-73
2022/12/30 02:39:54;;;;;;;;;;;;;;;11.43;100.00;102341.28;2102742;28;20390;-74
2022/12/30 02:44:41;;;;;;;;;;;;;;;11.39;100.00;102334.09;2088850;28;19924;-74
2022/12/30 02:46:07;;;;;;;;;;;;;;;11.40;100.00;102341.19;2091744;28;20015;-74
2022/12/30 02:47:31;;;;;;;;;;;;;;;11.37;100.00;102344.63;2092273;28;19951;-74
2022/12/30 02:48:54;;;;;;;;;;;;;;;11.35;100.00;102341.03;2108367;28;19919;-74
2022/12/30 02:53:39;;;;;;;;;;;;;;;11.24;100.00;102337.06;2104820;28;20292;-76
2022/12/30 02:55:00;;;;;;;;;;;;;;;11.22;100.00;102338.75;2094171;28;20047;-76
2022/12/30 02:56:22;;;;;;;;;;;;;;;11.22;100.00;102337.88;2094353;28;19924;-76
2022/12/30 02:57:44;;;;;;;;;;;;;;;11.23;100.00;102340.53;2094553;28;19952;-76
2022/12/30 03:04:44;;;;;;;;;;;;;;;11.38;100.00;102345.53;2096469;28;20439;-76
2022/12/30 03:06:12;;;;;;;;;;;;;;;11.40;100.00;102349.13;2087495;28;19920;-75
2022/12/30 03:07:38;;;;;;;;;;;;;;;11.42;100.00;102343.03;2092923;28;19921;-75
2022/12/30 03:09:03;;;;;;;;;;;;;;;11.42;100.00;102336.88;2102188;28;20324;-75
2022/12/30 03:12:14;;;;;;;;;;;;;;;11.41;100.00;102345.66;2105420;28;19927;-76
2022/12/30 03:13:40;;;;;;;;;;;;;;;11.39;100.00;102340.28;2094561;28;19920;-76
2022/12/30 03:15:06;;;;;;;;;;;;;;;11.38;100.00;102342.88;2106539;28;19973;-75
2022/12/30 03:16:31;;;;;;;;;;;;;;;11.37;100.00;102344.63;2088797;28;19920;-76
2022/12/30 03:17:54;;;;;;;;;;;;;;;11.37;100.00;102346.34;2100721;28;19974;-76
2022/12/30 03:19:19;;;;;;;;;;;;;;;11.40;100.00;102344.75;2101202;28;19927;-76
2022/12/30 03:20:41;;;;;;;;;;;;;;;11.43;100.00;102346.59;2104148;28;20088;-76
2022/12/30 03:22:04;;;;;;;;;;;;;;;11.48;100.00;102343.28;2094295;28;19927;-76
2022/12/30 03:27:04;;;;;;;;;;;;;;;11.72;100.00;102338.00;2103997;28;19924;-75
2022/12/30 03:28:27;;;;;;;;;;;;;;;11.79;100.00;102352.38;2105318;28;19919;-75
2022/12/30 03:29:52;;;;;;;;;;;;;;;11.80;100.00;102344.50;2093256;28;19961;-75
2022/12/30 03:31:14;;;;;;;;;;;;;;;11.83;100.00;102355.19;2099347;28;19923;-75
2022/12/30 03:32:36;;;;;;;;;;;;;;;11.86;100.00;102355.31;2093882;28;20023;-75
2022/12/30 03:33:59;;;;;;;;;;;;;;;11.90;100.00;102354.56;2099994;28;20045;-76
2022/12/30 03:35:22;;;;;;;;;;;;;;;11.90;100.00;102351.00;2097346;28;19924;-76
2022/12/30 03:36:46;;;;;;;;;;;;;;;11.90;100.00;102354.56;2096828;28;19920;-76
2022/12/30 03:38:09;;;;;;;;;;;;;;;11.94;100.00;102352.94;2100111;28;19924;-76
2022/12/30 03:39:34;;;;;;;;;;;;;;;11.96;100.00;102348.56;2096089;28;19926;-76
2022/12/30 03:40:56;;;;;;;;;;;;;;;11.97;100.00;102338.06;2095620;28;19920;-75
2022/12/30 03:42:18;;;;;;;;;;;;;;;12.00;100.00;102350.50;2097429;28;20019;-76
2022/12/30 03:43:40;;;;;;;;;;;;;;;12.02;100.00;102338.19;2088620;28;19975;-75
2022/12/30 03:45:02;;;;;;;;;;;;;;;12.03;100.00;102349.69;2092290;28;19958;-76
2022/12/30 03:46:26;;;;;;;;;;;;;;;12.03;100.00;102349.69;2097780;28;19920;-76
2022/12/30 03:47:48;;;;;;;;;;;;;;;12.05;100.00;102348.00;2094377;28;20296;-76
2022/12/30 03:49:12;;;;;;;;;;;;;;;12.05;100.00;102348.00;2089557;28;19928;-76
2022/12/30 03:50:34;;;;;;;;;;;;;;;12.05;100.00;102335.69;2101777;28;19943;-75
2022/12/30 03:51:56;;;;;;;;;;;;;;;12.07;100.00;102338.38;2104542;28;20327;-76
2022/12/30 03:53:18;;;;;;;;;;;;;;;12.08;100.00;102341.06;2101290;28;19928;-76
2022/12/30 03:54:40;;;;;;;;;;;;;;;12.13;100.00;102343.88;2101584;28;19935;-75
2022/12/30 03:56:01;;;;;;;;;;;;;;;12.16;100.00;102347.53;2102265;28;19924;-75
2022/12/30 03:57:23;;;;;;;;;;;;;;;12.21;100.00;102345.03;2101989;28;19924;-75
2022/12/30 03:58:45;;;;;;;;;;;;;;;12.24;100.00;102350.44;2096235;28;19973;-76
2022/12/30 04:00:08;;;;;;;;;;;;;;;12.25;100.00;102353.16;2102305;28;19966;-75
2022/12/30 04:01:34;;;;;;;;;;;;;;;12.29;100.00;102352.41;2100010;28;20761;-75
2022/12/30 04:02:55;;;;;;;;;;;;;;;12.33;100.00;102358.72;2100310;28;19920;-76
2022/12/30 04:04:20;;;;;;;;;;;;;;;12.33;100.00;102361.38;2101596;28;20327;-75
2022/12/30 04:05:41;;;;;;;;;;;;;;;12.34;100.00;102365.78;2102458;28;19931;-76
2022/12/30 04:07:03;;;;;;;;;;;;;;;12.33;100.00;102364.00;2093258;28;19950;-75
2022/12/30 04:08:25;;;;;;;;;;;;;;;12.34;100.00;102358.75;2099361;28;19920;-75
2022/12/30 04:09:46;;;;;;;;;;;;;;;12.36;100.00;102361.44;2097197;28;19920;-76
2022/12/30 04:11:08;;;;;;;;;;;;;;;12.38;100.00;102359.75;2103516;28;19927;-75
2022/12/30 04:12:30;;;;;;;;;;;;;;;12.37;100.00;102363.25;2101686;28;20368;-74
2022/12/30 04:13:51;;;;;;;;;;;;;;;12.35;100.00;102359.66;2100236;28;19931;-75
2022/12/30 04:15:14;;;;;;;;;;;;;;;12.33;100.00;102367.56;2090885;28;19921;-75
2022/12/30 04:16:34;;;;;;;;;;;;;;;12.35;100.00;102370.22;2101488;28;19923;-76
2022/12/30 04:17:56;;;;;;;;;;;;;;;12.36;100.00;102367.66;2102262;28;20018;-76
2022/12/30 04:19:21;;;;;;;;;;;;;;;12.40;100.00;102376.63;2101664;28;19920;-76
2022/12/30 04:20:43;;;;;;;;;;;;;;;12.43;100.00;102374.06;2100828;28;19924;-76
2022/12/30 04:22:04;;;;;;;;;;;;;;;12.49;100.00;102370.72;2101856;28;20288;-76
2022/12/30 04:23:26;;;;;;;;;;;;;;;12.53;100.00;102365.59;2091484;28;19956;-76
2022/12/30 04:24:48;;;;;;;;;;;;;;;12.55;100.00;102376.22;2099431;28;19927;-76
2022/12/30 04:26:10;;;;;;;;;;;;;;;12.57;100.00;102380.72;2093392;28;19969;-76
2022/12/30 04:27:31;;;;;;;;;;;;;;;12.55;100.00;102373.56;2107847;28;19919;-76
2022/12/30 04:28:53;;;;;;;;;;;;;;;12.57;100.00;102370.13;2095652;28;20376;-76
2022/12/30 04:30:14;;;;;;;;;;;;;;;12.57;100.00;102378.06;2096538;28;19927;-76
2022/12/30 04:31:36;;;;;;;;;;;;;;;12.59;100.00;102386.06;2107388;28;19926;-77
2022/12/30 04:32:58;;;;;;;;;;;;;;;12.56;100.00;102376.25;2104816;28;19924;-76
2022/12/30 04:34:22;;;;;;;;;;;;;;;12.55;100.00;102377.09;2100514;28;20357;-76
2022/12/30 04:35:43;;;;;;;;;;;;;;;12.54;100.00;102379.69;2102216;28;20317;-76
2022/12/30 04:37:05;;;;;;;;;;;;;;;12.53;100.00;102386.78;2104558;28;20729;-76
2022/12/30 04:38:26;;;;;;;;;;;;;;;12.50;100.00;102386.66;2096386;28;19921;-76
2022/12/30 04:39:48;;;;;;;;;;;;;;;12.48;100.00;102384.78;2085311;28;19920;-76
2022/12/30 04:41:10;;;;;;;;;;;;;;;12.46;100.00;102390.06;2094889;28;19920;-76
2022/12/30 04:42:31;;;;;;;;;;;;;;;12.44;100.00;102389.09;2102202;28;20501;-76
2022/12/30 04:43:54;;;;;;;;;;;;;;;12.42;100.00;102389.88;2092035;28;19945;-76
2022/12/30 04:45:15;;;;;;;;;;;;;;;12.37;100.00;102393.28;2099400;28;19920;-76
2022/12/30 04:46:37;;;;;;;;;;;;;;;12.35;100.00;102391.44;2096254;28;19927;-76
2022/12/30 04:47:58;;;;;;;;;;;;;;;12.31;100.00;102395.72;2101973;28;19965;-75
2022/12/30 04:49:20;;;;;;;;;;;;;;;12.30;100.00;102391.28;2096462;28;19979;-76
2022/12/30 04:50:43;;;;;;;;;;;;;;;12.28;100.00;102400.91;2093883;28;20717;-76
2022/12/30 04:52:05;;;;;;;;;;;;;;;12.28;100.00;102394.72;2100184;28;19924;-76
2022/12/30 04:53:27;;;;;;;;;;;;;;;12.29;100.00;102393.88;2093567;28;20571;-76
2022/12/30 04:54:48;;;;;;;;;;;;;;;12.28;100.00;102395.59;2092916;28;19920;-76
2022/12/30 04:56:10;;;;;;;;;;;;;;;12.29;100.00;102394.75;2101549;28;19950;-77
2022/12/30 04:57:31;;;;;;;;;;;;;;;12.29;100.00;102391.22;2102152;28;19932;-76
2022/12/30 04:58:53;;;;;;;;;;;;;;;12.28;100.00;102402.66;2101115;28;19979;-76
2022/12/30 05:00:14;;;;;;;;;;;;;;;12.27;100.00;102398.22;2101626;28;19968;-76
2022/12/30 05:01:36;;;;;;;;;;;;;;;12.26;100.00;102397.31;2092913;28;20550;-76
2022/12/30 05:02:57;;;;;;;;;;;;;;;12.26;100.00;102393.78;2090964;28;19928;-76
2022/12/30 05:04:19;;;;;;;;;;;;;;;12.29;100.00;102404.44;2098112;28;19927;-77
2022/12/30 05:05:40;;;;;;;;;;;;;;;12.32;100.00;102402.84;2093500;28;19947;-76
2022/12/30 05:07:04;;;;;;;;;;;;;;;12.34;100.00;102406.41;2096516;28;20431;-76
2022/12/30 05:08:26;;;;;;;;;;;;;;;12.38;100.00;102396.84;2101429;28;20514;-76
2022/12/30 05:09:47;;;;;;;;;;;;;;;12.40;100.00;102402.19;2096678;28;19953;-76
2022/12/30 05:11:09;;;;;;;;;;;;;;;12.42;100.00;102404.03;2085325;28;19927;-76
2022/12/30 05:12:30;;;;;;;;;;;;;;;12.43;100.00;102399.63;2103213;28;19931;-76
2022/12/30 05:13:52;;;;;;;;;;;;;;;12.44;100.00;102401.44;2102850;28;19967;-76
2022/12/30 05:15:14;;;;;;;;;;;;;;;12.43;100.00;102400.53;2092973;28;20312;-76
2022/12/30 05:16:35;;;;;;;;;;;;;;;12.43;100.00;102405.84;2101441;28;20015;-75
2022/12/30 05:17:57;;;;;;;;;;;;;;;12.45;100.00;102405.91;2104804;28;20308;-76
2022/12/30 05:19:18;;;;;;;;;;;;;;;12.44;100.00;102402.34;2095908;28;20276;-76
2022/12/30 05:20:40;;;;;;;;;;;;;;;12.48;100.00;102400.69;2096396;28;19951;-76
2022/12/30 05:22:03;;;;;;;;;;;;;;;12.49;100.00;102403.41;2101694;28;19931;-76
2022/12/30 05:26:44;;;;;;;;;;;;;;;12.59;100.00;102407.28;2105135;28;19924;-76
2022/12/30 05:28:06;;;;;;;;;;;;;;;12.60;100.00;102412.59;2103687;28;19947;-76
2022/12/30 05:29:28;;;;;;;;;;;;;;;12.62;100.00;102413.56;2094435;28;19924;-76
2022/12/30 05:30:49;;;;;;;;;;;;;;;12.63;100.00;102410.06;2100937;28;20335;-77
2022/12/30 05:32:11;;;;;;;;;;;;;;;12.65;100.00;102412.78;2086955;28;19956;-76
2022/12/30 05:33:32;;;;;;;;;;;;;;;12.65;100.00;102403.09;2094281;28;19923;-75
2022/12/30 05:34:54;;;;;;;;;;;;;;;12.68;100.00;102407.56;2095304;28;19920;-76
2022/12/30 05:36:15;;;;;;;;;;;;;;;12.70;100.00;102400.56;2096233;28;19928;-76
2022/12/30 05:37:38;;;;;;;;;;;;;;;12.73;100.00;102406.84;2106204;28;19919;-77
2022/12/30 05:39:00;;;;;;;;;;;;;;;12.76;100.00;102396.38;2102853;28;20498;-77
2022/12/30 05:40:22;;;;;;;;;;;;;;;12.81;100.00;102407.13;2094869;28;20019;-76
2022/12/30 05:41:43;;;;;;;;;;;;;;;12.84;100.00;102407.22;2107361;28;19920;-76
2022/12/30 05:43:05;;;;;;;;;;;;;;;12.88;100.00;102414.41;2097896;28;19978;-76
2022/12/30 05:44:26;;;;;;;;;;;;;;;12.92;100.00;102413.69;2099960;28;19920;-76
2022/12/30 05:45:48;;;;;;;;;;;;;;;12.98;100.00;102413.00;2103418;28;20414;-76
2022/12/30 05:47:09;;;;;;;;;;;;;;;13.02;100.00;102409.56;2103567;28;19931;-76
2022/12/30 05:48:31;;;;;;;;;;;;;;;13.07;100.00;102413.25;2103186;28;20310;-76
2022/12/30 05:49:53;;;;;;;;;;;;;;;13.09;100.00;102412.47;2101953;28;19964;-75
2022/12/30 05:51:14;;;;;;;;;;;;;;;13.11;100.00;102410.78;2103939;28;19931;-76
2022/12/30 05:52:36;;;;;;;;;;;;;;;13.13;100.00;102408.19;2100758;28;19920;-75
2022/12/30 05:54:00;;;;;;;;;;;;;;;13.16;100.00;102417.16;2103190;28;19985;-76
2022/12/30 05:55:21;;;;;;;;;;;;;;;13.20;100.00;102418.13;2097518;28;19924;-76
2022/12/30 05:56:44;;;;;;;;;;;;;;;13.25;100.00;102410.34;2108814;28;19951;-76
2022/12/30 05:58:04;;;;;;;;;;;;;;;13.28;100.00;102413.97;2091217;28;19925;-75
2022/12/30 05:59:26;;;;;;;;;;;;;;;13.31;100.00;102413.19;2093896;28;19920;-76
2022/12/30 06:00:48;;;;;;;;;;;;;;;13.33;100.00;102414.13;2102023;28;19943;-76
2022/12/30 06:02:09;;;;;;;;;;;;;;;13.37;100.00;102416.03;2102176;28;19927;-76
2022/12/30 06:03:32;;;;;;;;;;;;;;;13.38;100.00;102415.19;2103867;28;19927;-76
2022/12/30 06:04:53;;;;;;;;;;;;;;;13.38;100.00;102413.44;2106274;28;19923;-75
2022/12/30 06:06:15;;;;;;;;;;;;;;;13.38;100.00;102413.44;2102287;28;20415;-76
2022/12/30 06:07:37;;;;;;;;;;;;;;;13.39;100.00;102412.53;2105624;28;19942;-76
2022/12/30 06:09:02;;;;;;;;;;;;;;;13.42;100.00;102423.28;2089533;28;19921;-76
2022/12/30 06:10:24;;;;;;;;;;;;;;;13.45;100.00;102418.06;2095964;28;20551;-76
2022/12/30 06:11:45;;;;;;;;;;;;;;;13.48;100.00;102420.78;2103107;28;19923;-76
2022/12/30 06:13:08;;;;;;;;;;;;;;;13.51;100.00;102420.00;2100935;28;19927;-76
2022/12/30 06:14:30;;;;;;;;;;;;;;;13.54;100.00;102420.97;2089750;28;20491;-76
2022/12/30 06:15:51;;;;;;;;;;;;;;;13.60;100.00;102427.31;2093035;28;19987;-75
2022/12/30 06:17:13;;;;;;;;;;;;;;;13.61;100.00;102422.06;2096271;28;19954;-76
2022/12/30 06:18:34;;;;;;;;;;;;;;;13.63;100.00;102427.44;2102836;28;20458;-75
2022/12/30 06:19:56;;;;;;;;;;;;;;;13.61;100.00;102423.81;2106532;28;19920;-75
2022/12/30 06:21:17;;;;;;;;;;;;;;;13.63;100.00;102430.97;2097214;28;19931;-76
2022/12/30 06:22:39;;;;;;;;;;;;;;;13.66;100.00;102430.16;2095197;28;19927;-75
2022/12/30 06:24:03;;;;;;;;;;;;;;;13.71;100.00;102428.56;2090806;28;20349;-76
2022/12/30 06:25:25;;;;;;;;;;;;;;;13.74;100.00;102429.53;2101450;28;19927;-76
2022/12/30 06:26:47;;;;;;;;;;;;;;;13.79;100.00;102424.34;2091633;28;19920;-76
2022/12/30 06:28:08;;;;;;;;;;;;;;;13.85;100.00;102428.09;2100183;28;19927;-75
2022/12/30 06:29:30;;;;;;;;;;;;;;;13.92;100.00;102421.19;2096897;28;19920;-75
2022/12/30 06:30:53;;;;;;;;;;;;;;;13.96;100.00;102428.41;2098735;28;19954;-75
2022/12/30 06:32:15;;;;;;;;;;;;;;;14.00;100.00;102432.94;2094766;28;20419;-76
2022/12/30 06:33:37;;;;;;;;;;;;;;;14.03;100.00;102427.72;2098919;28;19920;-75
2022/12/30 06:34:58;;;;;;;;;;;;;;;14.05;100.00;102423.34;2101993;28;19966;-75
2022/12/30 06:36:20;;;;;;;;;;;;;;;14.06;100.00;102426.91;2102079;28;20018;-75
2022/12/30 06:37:42;;;;;;;;;;;;;;;14.08;100.00;102422.53;2112166;28;19924;-76
2022/12/30 06:39:07;;;;;;;;;;;;;;;14.10;100.00;102432.38;2105960;28;20010;-75
2022/12/30 06:40:29;;;;;;;;;;;;;;;14.12;100.00;102432.38;2105630;28;20320;-75
2022/12/30 06:41:50;;;;;;;;;;;;;;;14.14;100.00;102433.34;2094569;28;19920;-75
2022/12/30 06:43:12;;;;;;;;;;;;;;;14.19;100.00;102432.59;2096363;28;19943;-75
2022/12/30 06:44:34;;;;;;;;;;;;;;;14.26;100.00;102437.22;2103566;28;19920;-76
2022/12/30 06:45:56;;;;;;;;;;;;;;;14.31;100.00;102432.03;2101097;28;20018;-76
2022/12/30 06:47:18;;;;;;;;;;;;;;;14.38;100.00;102434.03;2095269;28;19920;-76
2022/12/30 06:48:39;;;;;;;;;;;;;;;14.46;100.00;102435.13;2099254;28;20389;-75
2022/12/30 06:50:01;;;;;;;;;;;;;;;14.53;100.00;102438.84;2102883;28;19965;-76
2022/12/30 06:51:24;;;;;;;;;;;;;;;14.58;100.00;102432.78;2111648;28;19923;-76
2022/12/30 06:52:44;;;;;;;;;;;;;;;14.63;100.00;102433.84;2104470;28;19920;-76
2022/12/30 06:54:08;;;;;;;;;;;;;;;14.65;100.00;102434.75;2094941;28;19991;-76
2022/12/30 06:55:29;;;;;;;;;;;;;;;14.67;100.00;102440.13;2092050;28;19920;-77
2022/12/30 06:56:51;;;;;;;;;;;;;;;14.67;100.00;102438.38;2086038;28;19932;-76
2022/12/30 06:58:12;;;;;;;;;;;;;;;14.70;100.00;102442.88;2092684;28;19928;-76
2022/12/30 06:59:34;;;;;;;;;;;;;;;14.75;100.00;102441.22;2102427;28;19945;-76
2022/12/30 07:00:56;;;;;;;;;;;;;;;14.77;100.00;102436.81;2100355;28;20597;-76
2022/12/30 07:02:18;;;;;;;;;;;;;;;14.82;100.00;102436.97;2091063;28;19925;-76
2022/12/30 07:03:40;;;;;;;;;;;;;;;14.86;100.00;102433.50;2096806;28;19950;-75
2022/12/30 07:05:01;;;;;;;;;;;;;;;14.92;100.00;102434.56;2105099;28;20320;-76
2022/12/30 07:06:23;;;;;;;;;;;;;;;14.98;100.00;102440.03;2094213;28;20011;-77
2022/12/30 07:07:44;;;;;;;;;;;;;;;15.05;100.00;102436.66;2103301;28;19956;-76
2022/12/30 07:09:06;;;;;;;;;;;;;;;15.13;100.00;102440.41;2103364;28;19927;-75
2022/12/30 07:10:29;;;;;;;;;;;;;;;15.33;100.00;102439.97;2105129;28;19920;-76
2022/12/30 07:11:51;;;;;;;;;;;;;;;15.57;100.00;102440.56;2102227;28;20318;-76
2022/12/30 07:13:13;;;;;;;;;;;;;;;15.80;100.00;102441.06;2092088;28;19924;-75
2022/12/30 07:14:35;;;;;;;;;;;;;;;16.01;100.00;102441.50;2100798;28;19966;-76
2022/12/30 07:15:56;;;;;;;;;;;;;;;16.22;100.00;102436.59;2102566;28;19920;-76
2022/12/30 07:17:18;;;;;;;;;;;;;;;16.42;100.00;102431.63;2103067;28;19946;-76
2022/12/30 07:18:40;;;;;;;;;;;;;;;16.59;100.00;102438.19;2097154;28;19920;-76
2022/12/30 07:20:02;;;;;;;;;;;;;;;16.76;100.00;102433.16;2104153;28;19920;-76
2022/12/30 07:21:23;;;;;;;;;;;;;;;16.94;100.00;102436.13;2104721;28;19920;-77
2022/12/30 07:22:45;;;;;;;;;;;;;;;17.11;100.00;102436.41;2102260;28;20002;-76
2022/12/30 07:24:08;;;;;;;;;;;;;;;17.24;100.00;102445.50;2093363;28;20273;-76
2022/12/30 07:25:32;;;;;;;;;;;;;;;17.29;100.00;102438.47;2097129;28;19932;-73
2022/12/30 07:26:54;;;;;;;;;;;;;;;17.32;100.00;102439.44;2103326;28;19994;-74
2022/12/30 07:28:16;;;;;;;;;;;;;;;17.35;100.00;102438.56;2103377;28;19927;-74
2022/12/30 07:29:38;;;;;;;;;;;;;;;17.35;100.00;102444.78;2105867;28;20577;-76
2022/12/30 07:31:00;;;;;;;;;;;;;;;17.36;100.00;102435.91;2094788;28;19920;-76
2022/12/30 07:32:22;;;;;;;;;;;;;;;17.37;100.00;102445.72;2108085;28;19920;-77
2022/12/30 07:33:44;;;;;;;;;;;;;;;17.36;100.00;102443.94;2096218;28;20288;-76
2022/12/30 07:35:07;;;;;;;;;;;;;;;17.36;100.00;102440.34;2099554;28;19927;-76
2022/12/30 07:36:28;;;;;;;;;;;;;;;17.39;100.00;102453.75;2099774;28;20370;-76
2022/12/30 07:37:50;;;;;;;;;;;;;;;17.45;100.00;102441.41;2096816;28;19919;-76
2022/12/30 07:39:12;;;;;;;;;;;;;;;17.52;100.00;102450.41;2094899;28;19927;-77
2022/12/30 07:40:36;;;;;;;;;;;;;;;17.58;100.00;102454.91;2098441;28;20430;-77